sensor_id;sensor_type;location;lat;lon;timestamp;pressure;altitude;pressure_sealevel;temperature;humidity
75972;BME280;64651;47.540;19.088;2023-03-21T00:04:22;100422.53;;;10.67;67.18
75972;BME280;64651;47.540;19.088;2023-03-21T00:09:25;100425.16;;;10.97;66.11
75972;BME280;64651;47.540;19.088;2023-03-21T00:14:28;100422.59;;;11.11;65.68
75972;BME280;64651;47.540;19.088;2023-03-21T00:19:31;100418.19;;;11.15;65.45
75972;BME280;64651;47.540;19.088;2023-03-21T00:24:35;100407.50;;;10.98;66.16
75972;BME280;64651;47.540;19.088;2023-03-21T00:29:37;100412.78;;;10.95;66.36
75972;BME280;64651;47.540;19.088;2023-03-21T00:34:41;100406.22;;;10.81;66.69
75972;BME280;64651;47.540;19.088;2023-03-21T00:39:55;100397.75;;;10.62;67.28
75972;BME280;64651;47.540;19.088;2023-03-21T00:44:57;100395.31;;;10.50;68.15
75972;BME280;64651;47.540;19.088;2023-03-21T00:50:00;100392.63;;;10.20;69.31
75972;BME280;64651;47.540;19.088;2023-03-21T00:55:02;100389.03;;;10.04;69.84
75972;BME280;64651;47.540;19.088;2023-03-21T01:00:06;100388.22;;;10.09;69.80
75972;BME280;64651;47.540;19.088;2023-03-21T01:05:10;100381.34;;;10.01;70.08
75972;BME280;64651;47.540;19.088;2023-03-21T01:10:12;100386.56;;;10.08;70.02
75972;BME280;64651;47.540;19.088;2023-03-21T01:15:15;100373.06;;;10.06;70.04
75972;BME280;64651;47.540;19.088;2023-03-21T01:20:17;100383.03;;;10.18;69.65
75972;BME280;64651;47.540;19.088;2023-03-21T01:25:20;100383.03;;;10.18;69.71
75972;BME280;64651;47.540;19.088;2023-03-21T01:30:23;100380.53;;;10.11;69.79
75972;BME280;64651;47.540;19.088;2023-03-21T01:35:31;100378.06;;;10.04;70.17
75972;BME280;64651;47.540;19.088;2023-03-21T01:40:49;100369.25;;;10.02;70.35
75972;BME280;64651;47.540;19.088;2023-03-21T01:51:25;100383.00;;;10.23;69.63
75972;BME280;64651;47.540;19.088;2023-03-21T01:56:34;100382.19;;;10.22;69.56
75972;BME280;64651;47.540;19.088;2023-03-21T02:01:39;100372.28;;;10.11;70.03
75972;BME280;64651;47.540;19.088;2023-03-21T02:06:49;100384.09;;;10.22;69.66
75972;BME280;64651;47.540;19.088;2023-03-21T02:11:54;100388.50;;;10.23;69.64
75972;BME280;64651;47.540;19.088;2023-03-21T02:17:04;100376.94;;;10.15;69.75
75972;BME280;64651;47.540;19.088;2023-03-21T02:22:20;100377.75;;;10.31;69.17
75972;BME280;64651;47.540;19.088;2023-03-21T02:27:32;100374.47;;;10.24;69.37
75972;BME280;64651;47.540;19.088;2023-03-21T02:38:03;100375.84;;;10.22;69.53
75972;BME280;64651;47.540;19.088;2023-03-21T02:49:08;100375.31;;;10.30;69.34
75972;BME280;64651;47.540;19.088;2023-03-21T02:54:16;100375.56;;;10.33;69.03
75972;BME280;64651;47.540;19.088;2023-03-21T02:59:39;100385.19;;;10.21;69.44
75972;BME280;64651;47.540;19.088;2023-03-21T03:04:54;100384.09;;;10.27;69.03
75972;BME280;64651;47.540;19.088;2023-03-21T03:25:57;100386.59;;;9.62;71.44
75972;BME280;64651;47.540;19.088;2023-03-21T03:31:02;100377.25;;;9.68;71.39
75972;BME280;64651;47.540;19.088;2023-03-21T03:36:13;100381.91;;;9.73;71.26
75972;BME280;64651;47.540;19.088;2023-03-21T03:41:37;100384.66;;;9.73;71.14
75972;BME280;64651;47.540;19.088;2023-03-21T03:52:26;100382.44;;;9.65;71.48
75972;BME280;64651;47.540;19.088;2023-03-21T03:57:31;100380.78;;;9.64;71.64
75972;BME280;64651;47.540;19.088;2023-03-21T04:02:33;100379.13;;;9.53;71.86
75972;BME280;64651;47.540;19.088;2023-03-21T04:07:35;100395.34;;;9.49;72.26
75972;BME280;64651;47.540;19.088;2023-03-21T04:12:37;100388.47;;;9.31;72.96
75972;BME280;64651;47.540;19.088;2023-03-21T04:17:40;100378.56;;;9.20;73.26
75972;BME280;64651;47.540;19.088;2023-03-21T04:22:42;100393.41;;;9.40;73.02
75972;BME280;64651;47.540;19.088;2023-03-21T04:27:45;100389.56;;;9.35;72.88
75972;BME280;64651;47.540;19.088;2023-03-21T04:32:50;100390.94;;;9.33;73.10
75972;BME280;64651;47.540;19.088;2023-03-21T04:37:54;100383.47;;;9.13;73.55
75972;BME280;64651;47.540;19.088;2023-03-21T04:42:57;100392.53;;;9.19;73.89
75972;BME280;64651;47.540;19.088;2023-03-21T04:48:02;100385.63;;;9.01;74.18
75972;BME280;64651;47.540;19.088;2023-03-21T04:53:05;100390.22;;;8.80;75.02
75972;BME280;64651;47.540;19.088;2023-03-21T04:58:07;100384.31;;;8.51;75.97
75972;BME280;64651;47.540;19.088;2023-03-21T05:03:09;100387.03;;;8.46;76.56
75972;BME280;64651;47.540;19.088;2023-03-21T05:08:16;100399.28;;;8.86;75.51
75972;BME280;64651;47.540;19.088;2023-03-21T05:13:19;100396.00;;;8.89;75.63
75972;BME280;64651;47.540;19.088;2023-03-21T05:18:21;100394.72;;;9.17;74.23
75972;BME280;64651;47.540;19.088;2023-03-21T05:23:27;100401.66;;;9.45;73.23
75972;BME280;64651;47.540;19.088;2023-03-21T05:28:32;100402.50;;;9.70;72.01
75972;BME280;64651;47.540;19.088;2023-03-21T05:33:37;100403.88;;;9.88;71.41
75972;BME280;64651;47.540;19.088;2023-03-21T05:38:39;100409.66;;;10.12;70.24
75972;BME280;64651;47.540;19.088;2023-03-21T05:49:40;100408.00;;;10.36;69.41
75972;BME280;64651;47.540;19.088;2023-03-21T05:54:43;100414.88;;;10.34;69.66
75972;BME280;64651;47.540;19.088;2023-03-21T05:59:45;100423.69;;;10.41;69.30
75972;BME280;64651;47.540;19.088;2023-03-21T06:04:47;100423.09;;;10.44;69.40
75972;BME280;64651;47.540;19.088;2023-03-21T06:09:49;100433.00;;;10.45;69.28
75972;BME280;64651;47.540;19.088;2023-03-21T06:14:52;100422.56;;;10.47;69.11
75972;BME280;64651;47.540;19.088;2023-03-21T06:19:54;100430.78;;;10.57;68.82
75972;BME280;64651;47.540;19.088;2023-03-21T06:24:56;100421.09;;;10.75;67.97
75972;BME280;64651;47.540;19.088;2023-03-21T06:29:58;100417.75;;;10.88;67.46
75972;BME280;64651;47.540;19.088;2023-03-21T06:35:01;100425.97;;;10.98;67.03
75972;BME280;64651;47.540;19.088;2023-03-21T06:40:04;100427.34;;;11.01;66.81
75972;BME280;64651;47.540;19.088;2023-03-21T06:45:07;100420.72;;;11.02;66.93
75972;BME280;64651;47.540;19.088;2023-03-21T06:50:09;100419.66;;;10.92;67.32
75972;BME280;64651;47.540;19.088;2023-03-21T06:55:12;100418.03;;;10.91;67.50
75972;BME280;64651;47.540;19.088;2023-03-21T07:00:15;100429.00;;;11.02;67.24
75972;BME280;64651;47.540;19.088;2023-03-21T07:05:18;100427.56;;;11.14;66.70
75972;BME280;64651;47.540;19.088;2023-03-21T07:10:20;100444.00;;;11.29;66.27
75972;BME280;64651;47.540;19.088;2023-03-21T07:15:22;100438.22;;;11.31;66.32
75972;BME280;64651;47.540;19.088;2023-03-21T07:20:25;100439.84;;;11.37;66.21
75972;BME280;64651;47.540;19.088;2023-03-21T07:25:27;100431.03;;;11.35;66.30
75972;BME280;64651;47.540;19.088;2023-03-21T07:30:35;100437.59;;;11.44;65.96
75972;BME280;64651;47.540;19.088;2023-03-21T07:35:37;100441.66;;;11.57;65.36
75972;BME280;64651;47.540;19.088;2023-03-21T07:40:40;100437.66;;;11.83;64.43
75972;BME280;64651;47.540;19.088;2023-03-21T07:45:43;100435.81;;;12.07;63.58
75972;BME280;64651;47.540;19.088;2023-03-21T07:50:47;100438.81;;;12.40;62.17
75972;BME280;64651;47.540;19.088;2023-03-21T07:55:51;100432.50;;;12.63;61.30
75972;BME280;64651;47.540;19.088;2023-03-21T08:00:53;100442.22;;;12.84;60.39
75972;BME280;64651;47.540;19.088;2023-03-21T08:05:59;100431.50;;;13.01;59.80
75972;BME280;64651;47.540;19.088;2023-03-21T08:11:03;100439.16;;;13.33;59.32
75972;BME280;64651;47.540;19.088;2023-03-21T08:16:06;100430.97;;;13.66;58.11
75972;BME280;64651;47.540;19.088;2023-03-21T08:21:08;100427.72;;;13.96;57.03
75972;BME280;64651;47.540;19.088;2023-03-21T08:26:10;100429.09;;;14.12;56.14
75972;BME280;64651;47.540;19.088;2023-03-21T08:31:19;100422.75;;;18.13;45.62
75972;BME280;64651;47.540;19.088;2023-03-21T08:36:23;100424.66;;;20.68;38.38
75972;BME280;64651;47.540;19.088;2023-03-21T08:41:25;100412.50;;;21.45;35.74
75972;BME280;64651;47.540;19.088;2023-03-21T08:46:28;100418.22;;;22.45;34.50
75972;BME280;64651;47.540;19.088;2023-03-21T08:51:31;100426.41;;;22.22;34.19
75972;BME280;64651;47.540;19.088;2023-03-21T08:56:34;100423.72;;;23.48;32.14
75972;BME280;64651;47.540;19.088;2023-03-21T09:01:38;100415.94;;;23.95;31.00
75972;BME280;64651;47.540;19.088;2023-03-21T09:06:40;100407.16;;;25.00;29.13
75972;BME280;64651;47.540;19.088;2023-03-21T09:11:46;100403.72;;;25.36;28.39
75972;BME280;64651;47.540;19.088;2023-03-21T09:16:48;100403.28;;;26.20;26.64
75972;BME280;64651;47.540;19.088;2023-03-21T09:21:50;100418.66;;;24.27;29.27
75972;BME280;64651;47.540;19.088;2023-03-21T09:26:54;100407.66;;;24.41;29.00
75972;BME280;64651;47.540;19.088;2023-03-21T09:31:56;100417.94;;;25.70;27.11
75972;BME280;64651;47.540;19.088;2023-03-21T09:36:59;100402.72;;;26.41;25.76
75972;BME280;64651;47.540;19.088;2023-03-21T09:42:09;100403.22;;;24.82;28.13
75972;BME280;64651;47.540;19.088;2023-03-21T09:47:20;100411.13;;;25.22;27.88
75972;BME280;64651;47.540;19.088;2023-03-21T09:52:57;100407.88;;;24.93;27.50
75972;BME280;64651;47.540;19.088;2023-03-21T09:58:18;100411.72;;;25.08;27.18
75972;BME280;64651;47.540;19.088;2023-03-21T10:03:31;100398.91;;;26.60;24.94
75972;BME280;64651;47.540;19.088;2023-03-21T10:08:42;100399.47;;;26.76;24.79
75972;BME280;64651;47.540;19.088;2023-03-21T10:13:57;100405.41;;;27.08;24.25
75972;BME280;64651;47.540;19.088;2023-03-21T10:19:05;100395.59;;;27.42;23.96
75972;BME280;64651;47.540;19.088;2023-03-21T10:24:22;100397.50;;;27.86;22.93
75972;BME280;64651;47.540;19.088;2023-03-21T10:29:30;100383.00;;;30.21;20.32
75972;BME280;64651;47.540;19.088;2023-03-21T10:34:54;100383.09;;;29.90;20.45
75972;BME280;64651;47.540;19.088;2023-03-21T10:39:57;100375.16;;;33.49;17.20
75972;BME280;64651;47.540;19.088;2023-03-21T10:45:00;100373.78;;;30.73;19.37
75972;BME280;64651;47.540;19.088;2023-03-21T10:50:11;100364.50;;;31.58;18.35
75972;BME280;64651;47.540;19.088;2023-03-21T11:00:29;100365.72;;;32.82;17.64
75972;BME280;64651;47.540;19.088;2023-03-21T11:05:37;100352.41;;;31.84;18.44
75972;BME280;64651;47.540;19.088;2023-03-21T11:11:02;100356.09;;;31.47;18.18
75972;BME280;64651;47.540;19.088;2023-03-21T11:21:12;100339.75;;;32.49;17.08
75972;BME280;64651;47.540;19.088;2023-03-21T11:26:36;100324.53;;;32.86;17.22
75972;BME280;64651;47.540;19.088;2023-03-21T11:31:39;100325.94;;;31.16;18.54
75972;BME280;64651;47.540;19.088;2023-03-21T11:36:41;100306.91;;;32.41;17.31
75972;BME280;64651;47.540;19.088;2023-03-21T11:41:46;100305.34;;;31.01;18.38
75972;BME280;64651;47.540;19.088;2023-03-21T11:46:49;100297.59;;;30.57;18.93
75972;BME280;64651;47.540;19.088;2023-03-21T11:52:05;100292.25;;;32.12;17.51
75972;BME280;64651;47.540;19.088;2023-03-21T11:57:27;100309.53;;;24.16;25.87
75972;BME280;64651;47.540;19.088;2023-03-21T12:19:41;100293.00;;;24.34;25.93
75972;BME280;64651;47.540;19.088;2023-03-21T12:24:53;100281.53;;;24.20;25.73
75972;BME280;64651;47.540;19.088;2023-03-21T12:40:38;100264.94;;;31.54;18.35
75972;BME280;64651;47.540;19.088;2023-03-21T12:45:48;100239.78;;;34.41;15.85
75972;BME280;64651;47.540;19.088;2023-03-21T12:50:53;100225.59;;;34.70;14.68
75972;BME280;64651;47.540;19.088;2023-03-21T12:56:01;100240.37;;;27.05;21.64
75972;BME280;64651;47.540;19.088;2023-03-21T13:01:05;100249.16;;;23.30;26.56
75972;BME280;64651;47.540;19.088;2023-03-21T13:06:10;100235.44;;;20.96;31.02
75972;BME280;64651;47.540;19.088;2023-03-21T13:11:20;100242.06;;;20.31;31.62
75972;BME280;64651;47.540;19.088;2023-03-21T13:26:51;100221.47;;;24.09;25.12
75972;BME280;64651;47.540;19.088;2023-03-21T13:32:45;100215.59;;;30.62;17.66
75972;BME280;64651;47.540;19.088;2023-03-21T13:37:21;100223.69;;;27.55;20.03
75972;BME280;64651;47.540;19.088;2023-03-21T13:42:31;100211.69;;;22.68;24.81
75972;BME280;64651;47.540;19.088;2023-03-21T13:47:53;100200.97;;;21.48;27.66
75972;BME280;64651;47.540;19.088;2023-03-21T13:58:23;100197.53;;;21.39;28.62
75972;BME280;64651;47.540;19.088;2023-03-21T14:03:33;100196.34;;;26.97;21.63
75972;BME280;64651;47.540;19.088;2023-03-21T14:08:39;100195.53;;;28.40;19.88
75972;BME280;64651;47.540;19.088;2023-03-21T14:13:43;100185.16;;;27.22;20.87
75972;BME280;64651;47.540;19.088;2023-03-21T14:19:02;100178.50;;;28.79;18.34
75972;BME280;64651;47.540;19.088;2023-03-21T14:24:09;100175.81;;;30.14;17.08
75972;BME280;64651;47.540;19.088;2023-03-21T14:29:24;100157.38;;;29.85;17.37
75972;BME280;64651;47.540;19.088;2023-03-21T14:34:31;100154.66;;;27.95;19.07
75972;BME280;64651;47.540;19.088;2023-03-21T14:39:34;100146.53;;;28.68;18.99
75972;BME280;64651;47.540;19.088;2023-03-21T14:44:42;100152.91;;;29.95;18.05
75972;BME280;64651;47.540;19.088;2023-03-21T14:49:56;100146.16;;;30.22;18.13
75972;BME280;64651;47.540;19.088;2023-03-21T14:55:00;100143.56;;;26.43;21.81
75972;BME280;64651;47.540;19.088;2023-03-21T15:00:06;100151.81;;;27.77;20.55
75972;BME280;64651;47.540;19.088;2023-03-21T15:10:31;100149.69;;;25.61;22.12
75972;BME280;64651;47.540;19.088;2023-03-21T15:15:34;100140.25;;;26.96;20.29
75972;BME280;64651;47.540;19.088;2023-03-21T15:20:37;100133.56;;;26.56;21.60
75972;BME280;64651;47.540;19.088;2023-03-21T15:25:39;100145.75;;;24.19;24.60
75972;BME280;64651;47.540;19.088;2023-03-21T15:30:50;100127.50;;;24.33;25.05
75972;BME280;64651;47.540;19.088;2023-03-21T15:35:57;100137.72;;;22.06;28.61
75972;BME280;64651;47.540;19.088;2023-03-21T15:46:43;100138.87;;;21.58;29.80
75972;BME280;64651;47.540;19.088;2023-03-21T15:57:04;100150.81;;;20.23;32.23
75972;BME280;64651;47.540;19.088;2023-03-21T16:02:16;100142.78;;;19.40;33.30
75972;BME280;64651;47.540;19.088;2023-03-21T16:07:22;100143.41;;;17.92;35.86
75972;BME280;64651;47.540;19.088;2023-03-21T16:12:25;100150.34;;;16.96;37.63
75972;BME280;64651;47.540;19.088;2023-03-21T16:17:35;100156.84;;;16.57;38.70
75972;BME280;64651;47.540;19.088;2023-03-21T16:22:40;100150.75;;;16.20;39.70
75972;BME280;64651;47.540;19.088;2023-03-21T16:27:43;100162.09;;;15.93;40.46
75972;BME280;64651;47.540;19.088;2023-03-21T16:32:46;100156.47;;;15.67;41.49
75972;BME280;64651;47.540;19.088;2023-03-21T16:37:49;100158.53;;;15.39;42.55
75972;BME280;64651;47.540;19.088;2023-03-21T16:42:51;100166.94;;;15.26;43.11
75972;BME280;64651;47.540;19.088;2023-03-21T16:47:53;100173.25;;;14.95;43.95
75972;BME280;64651;47.540;19.088;2023-03-21T16:52:57;100183.78;;;14.71;44.60
75972;BME280;64651;47.540;19.088;2023-03-21T16:58:00;100188.56;;;14.57;45.09
75972;BME280;64651;47.540;19.088;2023-03-21T17:03:12;100188.66;;;14.52;45.28
75972;BME280;64651;47.540;19.088;2023-03-21T17:08:17;100196.44;;;14.36;45.73
75972;BME280;64651;47.540;19.088;2023-03-21T17:13:20;100191.66;;;14.01;46.48
75972;BME280;64651;47.540;19.088;2023-03-21T17:18:22;100193.37;;;13.97;46.52
75972;BME280;64651;47.540;19.088;2023-03-21T17:23:24;100190.22;;;13.76;46.94
75972;BME280;64651;47.540;19.088;2023-03-21T17:28:27;100207.53;;;13.81;47.18
75972;BME280;64651;47.540;19.088;2023-03-21T17:33:29;100210.59;;;13.80;47.06
75972;BME280;64651;47.540;19.088;2023-03-21T17:38:31;100200.72;;;13.60;47.70
75972;BME280;64651;47.540;19.088;2023-03-21T17:43:34;100205.38;;;13.65;47.50
75972;BME280;64651;47.540;19.088;2023-03-21T17:48:36;100208.69;;;13.48;47.97
75972;BME280;64651;47.540;19.088;2023-03-21T17:53:38;100203.97;;;13.35;48.23
75972;BME280;64651;47.540;19.088;2023-03-21T17:58:40;100214.69;;;13.23;48.32
75972;BME280;64651;47.540;19.088;2023-03-21T18:03:42;100224.66;;;13.19;48.70
75972;BME280;64651;47.540;19.088;2023-03-21T18:08:45;100224.47;;;13.15;48.86
75972;BME280;64651;47.540;19.088;2023-03-21T18:13:48;100232.44;;;12.98;49.34
75972;BME280;64651;47.540;19.088;2023-03-21T18:18:51;100242.22;;;12.90;49.68
75972;BME280;64651;47.540;19.088;2023-03-21T18:23:54;100237.25;;;12.69;50.19
75972;BME280;64651;47.540;19.088;2023-03-21T18:28:56;100237.41;;;12.58;50.54
75972;BME280;64651;47.540;19.088;2023-03-21T18:34:19;100242.94;;;12.58;50.54
75972;BME280;64651;47.540;19.088;2023-03-21T18:39:21;100242.62;;;12.41;51.13
75972;BME280;64651;47.540;19.088;2023-03-21T18:44:24;100248.31;;;12.26;51.75
75972;BME280;64651;47.540;19.088;2023-03-21T18:49:26;100252.38;;;12.10;52.02
75972;BME280;64651;47.540;19.088;2023-03-21T18:54:48;100259.31;;;12.07;52.21
75972;BME280;64651;47.540;19.088;2023-03-21T18:59:51;100259.66;;;12.01;52.42
75972;BME280;64651;47.540;19.088;2023-03-21T19:04:54;100264.91;;;11.97;52.46
75972;BME280;64651;47.540;19.088;2023-03-21T19:09:58;100269.25;;;12.03;52.15
75972;BME280;64651;47.540;19.088;2023-03-21T19:15:19;100263.97;;;11.83;52.69
75972;BME280;64651;47.540;19.088;2023-03-21T19:20:22;100262.34;;;11.82;52.86
75972;BME280;64651;47.540;19.088;2023-03-21T19:25:24;100277.44;;;11.85;52.80
75972;BME280;64651;47.540;19.088;2023-03-21T19:30:27;100275.53;;;11.51;53.88
75972;BME280;64651;47.540;19.088;2023-03-21T19:35:29;100279.41;;;11.50;53.94
75972;BME280;64651;47.540;19.088;2023-03-21T19:40:32;100284.25;;;11.29;54.71
75972;BME280;64651;47.540;19.088;2023-03-21T19:45:34;100288.00;;;11.44;54.09
75972;BME280;64651;47.540;19.088;2023-03-21T19:50:37;100292.31;;;11.21;54.97
75972;BME280;64651;47.540;19.088;2023-03-21T19:55:59;100282.91;;;11.27;54.56
75972;BME280;64651;47.540;19.088;2023-03-21T20:01:04;100285.25;;;11.10;54.98
75972;BME280;64651;47.540;19.088;2023-03-21T20:06:08;100298.06;;;10.80;56.17
75972;BME280;64651;47.540;19.088;2023-03-21T20:11:11;100307.28;;;11.05;55.78
75972;BME280;64651;47.540;19.088;2023-03-21T20:16:13;100308.53;;;10.78;56.32
75972;BME280;64651;47.540;19.088;2023-03-21T20:21:15;100301.91;;;10.84;56.00
75972;BME280;64651;47.540;19.088;2023-03-21T20:26:24;100310.97;;;10.90;56.20
75972;BME280;64651;47.540;19.088;2023-03-21T20:31:26;100318.28;;;11.05;55.69
75972;BME280;64651;47.540;19.088;2023-03-21T20:36:29;100305.13;;;10.96;55.97
75972;BME280;64651;47.540;19.088;2023-03-21T20:41:43;100309.69;;;10.62;56.88
75972;BME280;64651;47.540;19.088;2023-03-21T20:46:45;100313.59;;;10.51;57.44
75972;BME280;64651;47.540;19.088;2023-03-21T20:51:49;100312.03;;;10.35;58.01
75972;BME280;64651;47.540;19.088;2023-03-21T20:57:11;100321.06;;;10.45;57.61
75972;BME280;64651;47.540;19.088;2023-03-21T21:02:13;100322.63;;;10.62;57.54
75972;BME280;64651;47.540;19.088;2023-03-21T21:07:17;100322.13;;;10.49;57.98
75972;BME280;64651;47.540;19.088;2023-03-21T21:12:22;100318.34;;;10.35;58.14
75972;BME280;64651;47.540;19.088;2023-03-21T21:17:28;100319.13;;;10.46;58.01
75972;BME280;64651;47.540;19.088;2023-03-21T21:22:51;100328.41;;;10.65;57.52
75972;BME280;64651;47.540;19.088;2023-03-21T21:28:01;100335.09;;;10.44;58.06
75972;BME280;64651;47.540;19.088;2023-03-21T21:33:03;100324.63;;;10.46;58.03
75972;BME280;64651;47.540;19.088;2023-03-21T21:38:06;100327.66;;;10.44;58.34
75972;BME280;64651;47.540;19.088;2023-03-21T21:43:08;100326.00;;;10.48;58.23
75972;BME280;64651;47.540;19.088;2023-03-21T21:48:10;100335.59;;;10.56;57.92
75972;BME280;64651;47.540;19.088;2023-03-21T21:53:13;100343.06;;;10.45;58.19
75972;BME280;64651;47.540;19.088;2023-03-21T21:58:19;100337.31;;;10.42;58.23
75972;BME280;64651;47.540;19.088;2023-03-21T22:03:22;100344.50;;;10.28;58.95
75972;BME280;64651;47.540;19.088;2023-03-21T22:08:24;100355.78;;;10.06;59.58
75972;BME280;64651;47.540;19.088;2023-03-21T22:13:27;100355.25;;;9.73;60.62
75972;BME280;64651;47.540;19.088;2023-03-21T22:18:29;100378.63;;;10.16;59.48
75972;BME280;64651;47.540;19.088;2023-03-21T22:23:31;100381.91;;;9.78;60.30
75972;BME280;64651;47.540;19.088;2023-03-21T22:28:34;100395.34;;;9.49;61.27
75972;BME280;64651;47.540;19.088;2023-03-21T22:33:37;100401.88;;;9.28;62.28
75972;BME280;64651;47.540;19.088;2023-03-21T22:38:39;100392.78;;;9.07;63.01
75972;BME280;64651;47.540;19.088;2023-03-21T22:43:42;100385.63;;;9.06;63.09
75972;BME280;64651;47.540;19.088;2023-03-21T22:48:45;100396.06;;;9.04;63.46
75972;BME280;64651;47.540;19.088;2023-03-21T22:53:47;100395.19;;;8.93;63.96
75972;BME280;64651;47.540;19.088;2023-03-21T22:58:49;100391.88;;;8.91;64.19
75972;BME280;64651;47.540;19.088;2023-03-21T23:03:51;100385.56;;;8.86;64.45
75972;BME280;64651;47.540;19.088;2023-03-21T23:08:54;100383.37;;;8.88;64.31
75972;BME280;64651;47.540;19.088;2023-03-21T23:13:56;100386.37;;;8.86;64.26
75972;BME280;64651;47.540;19.088;2023-03-21T23:19:09;100381.75;;;8.92;64.22
75972;BME280;64651;47.540;19.088;2023-03-21T23:24:12;100371.00;;;8.75;64.66
75972;BME280;64651;47.540;19.088;2023-03-21T23:29:15;100380.50;;;8.58;65.45
75972;BME280;64651;47.540;19.088;2023-03-21T23:34:17;100380.16;;;8.44;66.81
75972;BME280;64651;47.540;19.088;2023-03-21T23:39:19;100380.88;;;8.29;66.77
75972;BME280;64651;47.540;19.088;2023-03-21T23:44:22;100377.97;;;8.41;66.65
75972;BME280;64651;47.540;19.088;2023-03-21T23:49:24;100384.28;;;8.46;66.82
75972;BME280;64651;47.540;19.088;2023-03-21T23:54:27;100395.19;;;8.36;66.92
75972;BME280;64651;47.540;19.088;2023-03-21T23:59:29;100385.78;;;8.22;67.51
